createdAt,value
2023-01-28T00:00:54.634Z,0.05
2023-01-28T00:03:21.297Z,0.07
2023-01-28T00:05:47.748Z,0.06
2023-01-28T00:08:14.717Z,0.02
2023-01-28T00:10:43.139Z,-0.09
2023-01-28T00:13:14.497Z,-0.16
2023-01-28T00:15:40.972Z,-0.20
2023-01-28T00:18:07.425Z,-0.26
2023-01-28T00:20:35.287Z,-0.25
2023-01-28T00:23:02.013Z,-0.19
2023-01-28T00:25:28.403Z,-0.14
2023-01-28T00:27:55.217Z,-0.10
2023-01-28T00:30:21.919Z,0.01
2023-01-28T00:32:48.308Z,0.12
2023-01-28T00:35:15.477Z,0.32
2023-01-28T00:37:42.150Z,0.44
2023-01-28T00:40:10.016Z,0.41
2023-01-28T00:42:37.315Z,0.31
2023-01-28T00:45:04.094Z,0.26
2023-01-28T00:47:30.482Z,0.19
2023-01-28T00:49:57.220Z,0.08
2023-01-28T00:52:23.657Z,0.01
2023-01-28T00:54:50.043Z,-0.03
2023-01-28T00:57:16.443Z,0.08
2023-01-28T00:59:43.683Z,0.19
2023-01-28T01:02:13.177Z,0.26
2023-01-28T01:04:40.852Z,0.34
2023-01-28T01:07:07.444Z,0.32
2023-01-28T01:09:33.838Z,0.30
2023-01-28T01:12:00.267Z,0.31
2023-01-28T01:14:26.934Z,0.20
2023-01-28T01:16:53.410Z,0.15
2023-01-28T01:19:19.837Z,0.18
2023-01-28T01:21:50.324Z,0.35
2023-01-28T01:24:17.146Z,0.40
2023-01-28T01:26:43.628Z,0.50
2023-01-28T01:29:10.132Z,0.48
2023-01-28T01:31:36.605Z,0.25
2023-01-28T01:34:03.096Z,0.23
2023-01-28T01:36:29.612Z,0.17
2023-01-28T01:38:56.459Z,0.10
2023-01-28T01:41:29.922Z,0.05
2023-01-28T01:44:02.042Z,0.21
2023-01-28T01:46:31.275Z,0.37
2023-01-28T01:49:07.732Z,0.52
2023-01-28T01:51:36.384Z,0.44
2023-01-28T01:54:04.152Z,0.45
2023-01-28T01:56:35.744Z,0.49
2023-01-28T01:59:02.461Z,0.57
2023-01-28T02:01:31.884Z,0.57
2023-01-28T02:04:12.793Z,0.56
2023-01-28T02:06:40.935Z,0.60
2023-01-28T02:09:25.817Z,0.68
2023-01-28T02:11:59.486Z,0.63
2023-01-28T02:14:31.331Z,0.53
2023-01-28T02:17:00.146Z,0.49
2023-01-28T02:19:34.398Z,0.49
2023-01-28T02:22:05.644Z,0.42
2023-01-28T02:25:05.698Z,0.44
2023-01-28T02:28:04.640Z,0.39
2023-01-28T02:30:40.749Z,0.30
2023-01-28T02:33:52.487Z,0.28
2023-01-28T02:36:32.865Z,0.26
2023-01-28T02:39:07.794Z,0.18
2023-01-28T02:41:43.351Z,0.13
2023-01-28T02:44:09.774Z,0.05
2023-01-28T02:46:56.581Z,0.13
2023-01-28T02:49:43.614Z,0.13
2023-01-28T02:52:45.765Z,0.06
2023-01-28T02:55:45.818Z,-0.02
2023-01-28T02:58:44.912Z,0.03
2023-01-28T03:01:38.823Z,-0.03
2023-01-28T03:04:15.220Z,0.06
2023-01-28T03:06:48.310Z,0.11
2023-01-28T03:09:25.649Z,0.14
2023-01-28T03:12:13.509Z,0.14
2023-01-28T03:15:00.433Z,0.10
2023-01-28T03:17:54.796Z,0.17
2023-01-28T03:20:43.695Z,0.12
2023-01-28T03:23:33.627Z,0.16
2023-01-28T03:26:20.276Z,0.28
2023-01-28T03:29:07.807Z,0.26
2023-01-28T03:31:55.407Z,0.03
2023-01-28T03:34:41.220Z,0.00
2023-01-28T03:37:08.902Z,0.12
2023-01-28T03:39:36.100Z,0.18
2023-01-28T03:42:11.905Z,0.13
2023-01-28T03:44:53.221Z,0.14
2023-01-28T03:47:22.995Z,0.25
2023-01-28T03:49:51.342Z,0.25
2023-01-28T03:52:21.644Z,0.23
2023-01-28T03:54:48.631Z,0.19
2023-01-28T03:57:16.939Z,0.10
2023-01-28T03:59:43.679Z,0.02
2023-01-28T04:02:13.525Z,-0.03
2023-01-28T04:04:40.705Z,0.03
2023-01-28T04:07:08.848Z,0.10
2023-01-28T04:09:38.653Z,0.19
2023-01-28T04:12:05.794Z,0.29
2023-01-28T04:14:32.764Z,0.22
2023-01-28T04:16:59.413Z,0.16
2023-01-28T04:19:25.993Z,0.21
2023-01-28T04:21:56.627Z,0.14
2023-01-28T04:24:23.555Z,0.08
2023-01-28T04:26:50.273Z,0.21
2023-01-28T04:29:16.812Z,0.29
2023-01-28T04:31:43.329Z,0.26
2023-01-28T04:34:10.093Z,0.31
2023-01-28T04:36:36.552Z,0.17
2023-01-28T04:39:03.209Z,0.18
2023-01-28T04:41:30.771Z,0.20
2023-01-28T04:43:57.244Z,-0.02
2023-01-28T04:46:23.753Z,-0.09
2023-01-28T04:48:50.221Z,-0.13
2023-01-28T04:51:16.633Z,-0.09
2023-01-28T04:53:43.099Z,-0.02
2023-01-28T04:56:09.514Z,0.07
2023-01-28T04:58:36.120Z,0.03
2023-01-28T05:01:02.677Z,0.13
2023-01-28T05:03:29.279Z,0.08
2023-01-28T05:05:55.746Z,0.07
2023-01-28T05:08:22.460Z,0.03
2023-01-28T05:10:48.877Z,-0.04
2023-01-28T05:13:15.379Z,0.03
2023-01-28T05:15:41.852Z,-0.10
2023-01-28T05:18:08.320Z,-0.11
2023-01-28T05:20:34.745Z,-0.08
2023-01-28T05:23:01.331Z,-0.07
2023-01-28T05:25:27.782Z,-0.11
2023-01-28T05:27:54.603Z,-0.27
2023-01-28T05:30:21.843Z,-0.25
2023-01-28T05:32:48.551Z,-0.17
2023-01-28T05:35:15.390Z,-0.17
2023-01-28T05:37:42.069Z,-0.25
2023-01-28T05:40:09.155Z,-0.38
2023-01-28T05:42:35.603Z,-0.40
2023-01-28T05:45:02.026Z,-0.32
2023-01-28T05:47:28.429Z,-0.30
2023-01-28T05:49:54.857Z,-0.37
2023-01-28T05:52:21.244Z,-0.40
2023-01-28T05:54:47.709Z,-0.36
2023-01-28T05:57:14.131Z,-0.41
2023-01-28T05:59:40.616Z,-0.44
2023-01-28T06:02:07.087Z,-0.45
2023-01-28T06:04:33.729Z,-0.40
2023-01-28T06:07:00.142Z,-0.40
2023-01-28T06:09:26.545Z,-0.31
2023-01-28T06:11:53.176Z,-0.27
2023-01-28T06:14:19.573Z,-0.33
2023-01-28T06:16:46.025Z,-0.44
2023-01-28T06:19:12.606Z,-0.36
2023-01-28T06:21:39.045Z,-0.34
2023-01-28T06:24:19.025Z,-0.48
2023-01-28T06:26:48.851Z,-0.57
2023-01-28T06:29:35.478Z,-0.58
2023-01-28T06:32:01.914Z,-0.44
2023-01-28T06:34:35.661Z,-0.35
2023-01-28T06:37:07.228Z,-0.40
2023-01-28T06:39:33.892Z,-0.49
2023-01-28T06:42:00.770Z,-0.45
2023-01-28T06:44:27.242Z,-0.38
2023-01-28T06:46:53.694Z,-0.35
2023-01-28T06:49:21.373Z,-0.51
2023-01-28T06:52:00.227Z,-0.63
2023-01-28T06:54:36.260Z,-0.75
2023-01-28T06:57:02.694Z,-0.84
2023-01-28T06:59:29.184Z,-0.89
2023-01-28T07:02:34.277Z,-0.83
2023-01-28T07:05:10.494Z,-0.83
2023-01-28T07:07:37.160Z,-0.86
2023-01-28T07:10:03.926Z,-0.77
2023-01-28T07:12:30.498Z,-0.65
2023-01-28T07:14:56.953Z,-0.58
2023-01-28T07:17:23.469Z,-0.49
2023-01-28T07:19:49.916Z,-0.43
2023-01-28T07:22:16.382Z,-0.44
2023-01-28T07:24:42.874Z,-0.53
2023-01-28T07:27:09.349Z,-0.51
2023-01-28T07:29:35.767Z,-0.57
2023-01-28T07:32:02.389Z,-0.58
2023-01-28T07:34:28.850Z,-0.37
2023-01-28T07:36:57.351Z,-0.20
2023-01-28T07:39:33.020Z,-0.11
2023-01-28T07:41:59.529Z,0.03
2023-01-28T07:44:25.949Z,0.10
2023-01-28T07:46:52.490Z,-0.02
2023-01-28T07:49:19.045Z,-0.05
2023-01-28T07:51:50.553Z,0.08
2023-01-28T07:54:17.397Z,0.15
2023-01-28T07:56:43.839Z,0.22
2023-01-28T07:59:18.819Z,0.35
2023-01-28T08:01:45.283Z,0.47
2023-01-28T08:04:11.981Z,0.46
2023-01-28T08:06:38.445Z,0.39
2023-01-28T08:09:12.279Z,0.53
2023-01-28T08:11:42.333Z,0.72
2023-01-28T08:14:11.028Z,0.73
2023-01-28T08:16:37.461Z,0.78
2023-01-28T08:19:03.960Z,0.84
2023-01-28T08:21:30.487Z,0.89
2023-01-28T08:23:57.082Z,0.93
2023-01-28T08:26:23.709Z,0.99
2023-01-28T08:28:51.592Z,1.06
2023-01-28T08:31:18.578Z,1.12
2023-01-28T08:33:45.048Z,1.17
2023-01-28T08:36:11.543Z,1.24
2023-01-28T08:38:37.948Z,1.33
2023-01-28T08:41:04.558Z,1.37
2023-01-28T08:43:30.964Z,1.45
2023-01-28T08:45:57.451Z,1.49
2023-01-28T08:48:23.909Z,1.53
2023-01-28T08:50:50.858Z,1.61
2023-01-28T08:53:19.735Z,1.58
2023-01-28T08:55:46.849Z,1.59
2023-01-28T08:58:15.605Z,1.43
2023-01-28T09:00:43.372Z,1.40
2023-01-28T09:03:09.860Z,1.54
2023-01-28T09:05:37.748Z,1.69
2023-01-28T09:08:06.318Z,1.81
2023-01-28T09:10:32.743Z,2.30
2023-01-28T09:12:59.330Z,2.28
2023-01-28T09:15:25.735Z,2.31
2023-01-28T09:17:57.802Z,2.31
2023-01-28T09:20:24.192Z,2.41
2023-01-28T09:22:50.642Z,2.49
2023-01-28T09:25:17.047Z,2.60
2023-01-28T09:27:43.689Z,2.67
2023-01-28T09:30:10.690Z,2.71
2023-01-28T09:32:37.197Z,2.74
2023-01-28T09:35:03.817Z,2.86
2023-01-28T09:37:30.263Z,2.97
2023-01-28T09:39:57.105Z,3.05
2023-01-28T09:42:45.639Z,3.13
2023-01-28T09:45:27.770Z,3.27
2023-01-28T09:47:56.977Z,3.38
2023-01-28T09:50:30.976Z,3.48
2023-01-28T09:53:04.669Z,3.56
2023-01-28T09:55:36.634Z,3.67
2023-01-28T09:58:08.875Z,3.74
2023-01-28T10:04:13.783Z,4.02
2023-01-28T10:07:18.143Z,4.11
2023-01-28T10:10:26.256Z,4.18
2023-01-28T10:13:21.891Z,4.18
2023-01-28T10:16:05.223Z,4.23
2023-01-28T10:18:57.278Z,4.36
2023-01-28T10:21:38.262Z,4.49
2023-01-28T10:24:29.685Z,4.57
2023-01-28T10:26:56.724Z,4.68
2023-01-28T10:29:38.420Z,4.75
2023-01-28T10:32:23.404Z,4.81
2023-01-28T10:35:06.069Z,4.76
2023-01-28T10:37:35.631Z,4.77
2023-01-28T10:40:04.268Z,4.79
2023-01-28T10:42:47.011Z,4.77
2023-01-28T10:45:23.856Z,4.80
2023-01-28T10:48:04.221Z,4.88
2023-01-28T10:50:32.601Z,5.01
2023-01-28T10:53:01.579Z,5.06
2023-01-28T10:55:32.146Z,5.03
2023-01-28T10:57:59.281Z,5.05
2023-01-28T11:00:30.666Z,5.12
2023-01-28T11:03:01.827Z,5.17
2023-01-28T11:05:31.460Z,5.23
2023-01-28T11:08:07.016Z,5.34
2023-01-28T11:10:37.260Z,5.38
2023-01-28T11:13:05.963Z,5.41
2023-01-28T11:15:33.098Z,5.40
2023-01-28T11:18:08.409Z,5.54
2023-01-28T11:20:40.628Z,5.63
2023-01-28T11:23:07.101Z,5.65
2023-01-28T11:25:35.974Z,5.71
2023-01-28T11:28:08.109Z,5.71
2023-01-28T11:30:37.663Z,5.68
2023-01-28T11:33:23.650Z,5.78
2023-01-28T11:36:12.568Z,5.80
2023-01-28T11:38:57.284Z,5.73
2023-01-28T11:41:38.878Z,5.74
2023-01-28T11:44:14.566Z,5.85
2023-01-28T11:47:05.448Z,5.96
2023-01-28T11:50:07.596Z,6.03
2023-01-28T11:53:12.541Z,5.92
2023-01-28T11:58:42.197Z,6.11
2023-01-28T12:01:21.763Z,6.08
2023-01-28T12:04:19.039Z,6.06
2023-01-28T12:07:21.780Z,6.03
2023-01-28T12:09:55.733Z,5.98
2023-01-28T12:12:59.953Z,6.21
2023-01-28T12:15:38.690Z,6.34
2023-01-28T12:18:17.206Z,6.28
2023-01-28T12:20:52.691Z,6.26
2023-01-28T12:23:43.794Z,6.28
2023-01-28T12:26:16.426Z,6.22
2023-01-28T12:29:18.070Z,6.16
2023-01-28T12:31:53.505Z,6.33
2023-01-28T12:34:31.701Z,6.35
2023-01-28T12:37:13.316Z,6.35
2023-01-28T12:39:55.433Z,6.32
2023-01-28T12:42:38.841Z,6.40
2023-01-28T12:45:20.583Z,6.43
2023-01-28T12:48:08.100Z,6.43
2023-01-28T12:50:43.493Z,6.46
2023-01-28T12:53:18.891Z,6.47
2023-01-28T12:55:54.487Z,6.62
2023-01-28T12:58:35.821Z,6.57
2023-01-28T13:01:08.498Z,6.34
2023-01-28T13:03:58.130Z,6.37
2023-01-28T13:06:38.370Z,6.40
2023-01-28T13:09:17.553Z,6.41
2023-01-28T13:11:45.307Z,6.42
2023-01-28T13:14:13.151Z,6.46
2023-01-28T13:16:39.876Z,6.45
2023-01-28T13:19:35.636Z,6.35
2023-01-28T13:22:25.629Z,6.34
2023-01-28T13:24:52.177Z,6.43
2023-01-28T13:27:27.860Z,6.48
2023-01-28T13:30:22.497Z,6.51
2023-01-28T13:32:57.105Z,6.53
2023-01-28T13:35:54.023Z,6.60
2023-01-28T13:38:21.675Z,6.53
2023-01-28T13:40:57.055Z,6.49
2023-01-28T13:43:41.484Z,6.46
2023-01-28T13:46:28.326Z,6.46
2023-01-28T13:48:57.470Z,6.46
2023-01-28T13:51:35.759Z,6.53
2023-01-28T13:54:20.975Z,6.50
2023-01-28T13:56:59.591Z,6.52
2023-01-28T13:59:44.818Z,6.55
2023-01-28T14:02:32.585Z,6.54
2023-01-28T14:05:17.772Z,6.64
2023-01-28T14:08:22.730Z,6.64
2023-01-28T14:11:04.546Z,6.58
2023-01-28T14:13:40.938Z,6.57
2023-01-28T14:16:19.460Z,6.58
2023-01-28T14:18:48.294Z,6.59
2023-01-28T14:21:22.301Z,6.57
2023-01-28T14:23:52.753Z,6.58
2023-01-28T14:26:34.609Z,6.61
2023-01-28T14:29:25.081Z,6.59
2023-01-28T14:31:52.913Z,6.56
2023-01-28T14:34:32.753Z,6.58
2023-01-28T14:37:04.472Z,6.57
2023-01-28T14:39:38.313Z,6.53
2023-01-28T14:42:05.151Z,6.52
2023-01-28T14:44:41.657Z,6.57
2023-01-28T14:47:35.177Z,6.54
2023-01-28T14:50:15.940Z,6.54
2023-01-28T14:53:04.418Z,6.55
2023-01-28T14:55:56.228Z,6.53
2023-01-28T14:58:41.064Z,6.47
2023-01-28T15:01:20.360Z,6.46
2023-01-28T15:03:46.879Z,6.46
2023-01-28T15:06:16.579Z,6.47
2023-01-28T15:08:43.157Z,6.45
2023-01-28T15:11:14.264Z,6.42
2023-01-28T15:13:44.664Z,6.40
2023-01-28T15:16:20.431Z,6.40
2023-01-28T15:18:48.641Z,6.40
2023-01-28T15:21:20.116Z,6.37
2023-01-28T15:23:48.345Z,6.32
2023-01-28T15:26:22.495Z,6.30
2023-01-28T15:28:49.733Z,6.29
2023-01-28T15:31:25.049Z,6.26
2023-01-28T15:34:03.456Z,6.26
2023-01-28T15:36:31.708Z,6.23
2023-01-28T15:38:58.556Z,6.19
2023-01-28T15:41:32.357Z,6.16
2023-01-28T15:43:59.022Z,6.14
2023-01-28T15:46:25.947Z,6.15
2023-01-28T15:49:14.999Z,6.15
2023-01-28T15:51:41.480Z,6.08
2023-01-28T15:54:09.963Z,6.00
2023-01-28T15:56:36.762Z,5.94
2023-01-28T15:59:18.428Z,5.86
2023-01-28T16:01:47.991Z,5.76
2023-01-28T16:04:27.106Z,5.71
2023-01-28T16:06:57.243Z,5.69
2023-01-28T16:09:38.288Z,5.61
2023-01-28T16:12:11.101Z,5.49
2023-01-28T16:14:49.752Z,5.40
2023-01-28T16:17:32.549Z,5.36
2023-01-28T16:20:11.536Z,5.29
2023-01-28T16:22:48.293Z,5.28
2023-01-28T16:25:35.561Z,5.18
2023-01-28T16:28:17.185Z,5.11
2023-01-28T16:30:45.796Z,5.03
2023-01-28T16:33:23.344Z,4.96
2023-01-28T16:36:06.580Z,5.00
2023-01-28T16:38:37.984Z,4.95
2023-01-28T16:41:22.297Z,4.89
2023-01-28T16:43:48.730Z,4.85
2023-01-28T16:46:15.180Z,4.72
2023-01-28T16:48:44.695Z,4.52
2023-01-28T16:51:37.759Z,4.52
2023-01-28T16:54:05.170Z,4.55
2023-01-28T16:56:45.512Z,4.51
2023-01-28T16:59:14.876Z,4.52
2023-01-28T17:01:41.742Z,4.50
2023-01-28T17:04:12.796Z,4.46
2023-01-28T17:06:42.897Z,4.36
2023-01-28T17:09:10.739Z,4.22
2023-01-28T17:11:37.176Z,4.07
2023-01-28T17:14:03.604Z,4.07
2023-01-28T17:16:30.130Z,4.01
2023-01-28T17:18:56.644Z,3.95
2023-01-28T17:21:23.417Z,3.89
2023-01-28T17:23:49.875Z,3.78
2023-01-28T17:26:17.013Z,3.86
2023-01-28T17:28:44.296Z,3.82
2023-01-28T17:31:13.477Z,3.78
2023-01-28T17:33:42.814Z,3.73
2023-01-28T17:36:09.863Z,3.62
2023-01-28T17:38:36.666Z,3.66
2023-01-28T17:41:08.422Z,3.64
2023-01-28T17:43:35.212Z,3.50
2023-01-28T17:46:09.831Z,3.35
2023-01-28T17:48:36.431Z,3.31
2023-01-28T17:51:03.064Z,3.26
2023-01-28T17:53:30.029Z,3.19
2023-01-28T17:55:56.804Z,3.13
2023-01-28T17:58:23.395Z,3.09
2023-01-28T18:00:52.887Z,3.19
2023-01-28T18:03:19.386Z,3.19
2023-01-28T18:05:57.290Z,3.05
2023-01-28T18:08:24.041Z,3.05
2023-01-28T18:10:50.450Z,3.07
2023-01-28T18:13:17.107Z,3.05
2023-01-28T18:15:43.536Z,3.17
2023-01-28T18:18:10.061Z,3.04
2023-01-28T18:20:36.564Z,2.95
2023-01-28T18:23:03.052Z,3.04
2023-01-28T18:25:29.508Z,3.13
2023-01-28T18:27:55.945Z,3.06
2023-01-28T18:30:22.393Z,2.94
2023-01-28T18:32:48.823Z,2.97
2023-01-28T18:35:15.588Z,3.06
2023-01-28T18:37:42.276Z,3.07
2023-01-28T18:40:09.554Z,2.90
2023-01-28T18:42:37.567Z,2.81
2023-01-28T18:45:04.951Z,2.87
2023-01-28T18:47:31.400Z,2.74
2023-01-28T18:49:57.809Z,2.47
2023-01-28T18:52:24.429Z,2.39
2023-01-28T18:54:50.847Z,2.36
2023-01-28T18:57:17.285Z,2.48
2023-01-28T18:59:43.710Z,2.45
2023-01-28T19:02:13.680Z,2.45
2023-01-28T19:04:40.114Z,2.34
2023-01-28T19:07:08.139Z,2.27
2023-01-28T19:09:34.919Z,2.27
2023-01-28T19:12:01.576Z,2.39
2023-01-28T19:14:27.986Z,2.34
2023-01-28T19:16:54.509Z,2.36
2023-01-28T19:19:21.716Z,2.44
2023-01-28T19:21:48.117Z,2.51
2023-01-28T19:24:14.568Z,2.47
2023-01-28T19:26:42.081Z,2.41
2023-01-28T19:29:10.627Z,2.44
2023-01-28T19:31:38.426Z,2.37
2023-01-28T19:34:05.728Z,2.30
2023-01-28T19:36:33.524Z,2.23
2023-01-28T19:39:02.540Z,2.16
2023-01-28T19:41:29.438Z,2.09
2023-01-28T19:43:57.039Z,2.08
2023-01-28T19:46:23.621Z,2.02
2023-01-28T19:48:50.135Z,1.97
2023-01-28T19:51:17.566Z,1.81
2023-01-28T19:53:45.292Z,1.71
2023-01-28T19:56:14.647Z,1.70
2023-01-28T19:58:43.030Z,1.54
2023-01-28T20:01:12.299Z,1.45
2023-01-28T20:03:39.192Z,1.55
2023-01-28T20:06:10.359Z,1.62
2023-01-28T20:08:36.824Z,1.69
2023-01-28T20:11:23.646Z,1.64
2023-01-28T20:13:51.692Z,1.61
2023-01-28T20:16:30.013Z,1.52
2023-01-28T20:19:01.824Z,1.55
2023-01-28T20:21:29.790Z,1.63
2023-01-28T20:23:57.758Z,1.48
2023-01-28T20:26:26.790Z,1.24
2023-01-28T20:28:53.205Z,1.19
2023-01-28T20:31:20.606Z,1.20
2023-01-28T20:33:47.244Z,1.20
2023-01-28T20:36:14.576Z,1.20
2023-01-28T20:38:46.009Z,1.27
2023-01-28T20:41:15.233Z,1.14
2023-01-28T20:43:43.376Z,1.08
2023-01-28T20:46:16.357Z,1.15
2023-01-28T20:48:42.831Z,1.14
2023-01-28T20:51:18.601Z,1.04
2023-01-28T20:53:46.062Z,1.04
2023-01-28T20:56:14.375Z,1.11
2023-01-28T20:58:41.339Z,1.14
2023-01-28T21:01:07.794Z,0.97
2023-01-28T21:03:34.351Z,0.96
2023-01-28T21:06:00.793Z,1.04
2023-01-28T21:08:27.215Z,1.08
2023-01-28T21:10:53.633Z,1.02
2023-01-28T21:13:20.012Z,0.89
2023-01-28T21:15:57.177Z,0.81
2023-01-28T21:18:24.519Z,0.96
2023-01-28T21:20:53.562Z,1.00
2023-01-28T21:23:23.723Z,0.99
2023-01-28T21:25:51.501Z,0.86
2023-01-28T21:28:20.951Z,0.78
2023-01-28T21:30:47.638Z,0.75
2023-01-28T21:33:17.220Z,0.82
2023-01-28T21:35:43.703Z,0.70
2023-01-28T21:38:10.667Z,0.77
2023-01-28T21:40:37.729Z,0.86
2023-01-28T21:43:05.489Z,0.87
2023-01-28T21:45:34.520Z,0.86
2023-01-28T21:48:00.946Z,0.88
2023-01-28T21:50:27.443Z,0.89
2023-01-28T21:52:53.881Z,0.88
2023-01-28T21:55:20.499Z,0.93
2023-01-28T21:57:47.111Z,0.84
2023-01-28T22:00:14.083Z,0.92
2023-01-28T22:02:43.743Z,0.89
2023-01-28T22:05:10.209Z,0.87
2023-01-28T22:07:36.816Z,0.78
2023-01-28T22:10:04.059Z,0.66
2023-01-28T22:12:30.559Z,0.63
2023-01-28T22:14:57.138Z,0.63
2023-01-28T22:17:23.660Z,0.78
2023-01-28T22:19:50.172Z,0.77
2023-01-28T22:22:17.597Z,0.70
2023-01-28T22:24:44.100Z,0.61
2023-01-28T22:27:10.608Z,0.62
2023-01-28T22:29:37.021Z,0.68
2023-01-28T22:32:04.723Z,0.75
2023-01-28T22:34:31.534Z,0.92
2023-01-28T22:36:58.100Z,1.06
2023-01-28T22:39:24.624Z,1.03
2023-01-28T22:41:51.206Z,1.06
2023-01-28T22:44:19.713Z,1.12
2023-01-28T22:46:47.160Z,1.04
2023-01-28T22:49:15.064Z,1.15
2023-01-28T22:51:42.204Z,1.22
2023-01-28T22:54:11.785Z,1.20
2023-01-28T22:56:38.346Z,1.14
2023-01-28T22:59:05.908Z,1.13
2023-01-28T23:01:33.028Z,1.20
2023-01-28T23:03:59.739Z,1.12
2023-01-28T23:06:30.611Z,1.11
2023-01-28T23:08:57.088Z,1.18
2023-01-28T23:11:27.642Z,1.26
2023-01-28T23:14:18.547Z,1.33
2023-01-28T23:17:04.425Z,1.49
2023-01-28T23:19:49.759Z,1.43
2023-01-28T23:22:41.049Z,1.38
2023-01-28T23:25:08.279Z,1.37
2023-01-28T23:27:34.997Z,1.41
2023-01-28T23:30:01.487Z,1.41
2023-01-28T23:32:28.197Z,1.34
2023-01-28T23:34:54.800Z,1.34
2023-01-28T23:37:21.246Z,1.36
2023-01-28T23:39:47.708Z,1.24
2023-01-28T23:42:16.742Z,1.11
2023-01-28T23:44:43.866Z,1.19
2023-01-28T23:47:11.096Z,1.25
2023-01-28T23:49:37.960Z,1.21
2023-01-28T23:52:05.600Z,1.15
2023-01-28T23:54:32.458Z,1.06
2023-01-28T23:56:59.674Z,0.97
2023-01-28T23:59:26.698Z,0.98
